Sandovalina, Brazil
Current Conditions -  °F | °C
As of 1:00 PM on Friday 19 Dec 2014 (Local Time) from SBDN Reporting Station
Broken Clouds Broken Clouds  
Wind Chill: 90°   Ceiling: 3000
Heat Index: 92°   Visibility: 6mi
Dew Point: 66°   Wind: 5mph
Humidity: 46%   Direction: 320°NW
Pressure: 29.83"   Gusts: NA
Location:  22.46°S, 51.76°W
Report Text: SBDN 191500Z 32004KT 9999 BKN030 32/19 Q1010
Loading
Personal Weather Stations






























Interactive Weather Map New forecast layout! Learn more

10-Day Weather Forecast

Advertisements
Track Severe Weather on mobile